VIDPVNKT

Guest
Details From VIDP - Indira Gandhi Intl
To VNKT - Kathmandu Tribhuvan Intl
Flight Number -
Tags Generated
Created
Modified
Stats Distance 441 nm / 817 km
Max Altitude 0 ft / 0 m
Waypoints 3
Social Downloads 1
Likes 0
Share VATSIM

Download

Looking for another format? Having issues loading an existing format? Contact us
Advertisement - Login to hide

Notes

Generated

Route

VIDP KTM56 VNKT

ID Type Via Altitude Latitude Longitude Leg Dist Tot Dist Heading (true) Name
O VIDP APT - 0 ft / 0 m 28.57049˚ 77.08804˚ - 0 nm - -
KTM56 FIX - 0 ft / 0 m 27.68390˚ 85.35196˚ 440 nm 440 nm 95° / 99° -
O VNKT APT - 0 ft / 0 m 27.68381˚ 85.35342˚ 0 nm 440 nm 94° / 94° -

Altitude Profile

Advertisement - Login to hide

Weather


0- 5 10 15 20 25 30 35+ Temperature / ° C

Clouds and Precipitation
Forecast for 2018-05-28 00:00 UTC. Updated 14 minutes ago

Ground ~20,000 ft ~40,000 ft Winds

VIDP

Details ICAO VIDP (DEL)
Name INDIRA GANDHI INTL
Region India
Timezone Asia/Kolkata (UTC+5.5)
Stats Elevation 777 ft / 237 m (AMSL)
Location 28.566496° 77.103090°
Runways 2
Magnetic Variation 1.244° E

METAR

VIDP 272330Z 08003KT 3000 HZ NSC 31/14 Q1000 NOSIG

Decode

TAF

TAF VIDP 271700Z 2718/2824 VRB02KT 3000 HZ NSC BECMG 2800/2802 24005KT 2500 HZ FEW100 BECMG 2805/2807 30008KT 4000 HZ NSC BECMG 2814/2815 25004KT 3000 HZ BECMG 2819/2820 00000KT 2000 HZ

Decode

Departure Runways

ID Width Length Bearing (true) Bearing (mag) Surface Threshold Offset Overrun Length
09 150 ft / 46 m 9,270 ft / 2,826 m 91.50° 90.26° Asphalt 0 ft / 0 m 195 ft / 59 m
10 150 ft / 46 m 12,488 ft / 3,807 m 104.67° 103.43° Asphalt 0 ft / 0 m 880 ft / 268 m
27 150 ft / 46 m 9,270 ft / 2,826 m 271.52° 270.28° Asphalt 499 ft / 152 m 0 ft / 0 m
28 150 ft / 46 m 12,488 ft / 3,807 m 284.69° 283.45° Asphalt 0 ft / 0 m 470 ft / 143 m

VNKT

Details ICAO VNKT (KTM)
Name Kathmandu Tribhuvan Intl
Region Nepal
Timezone Asia/Kathmandu (UTC+5.8)
Stats Elevation 4,390 ft / 1,338 m (AMSL)
Location 27.696583° 85.359100°
Runways 1
Magnetic Variation 0.514° E

METAR

VNKT 272250Z VRB02KT 6000 FEW015 17/14 Q1010 NOSIG

Decode

TAF

TAF VNKT 271700Z 2718/2818 10003KT 5000 BR FEW015 SCT100 BECMG 2800/2802 VRB02KT 3000 BR FEW010 SCT030 PROB40 2801/2803 2000 BR BECMG 2804/2805 13004KT 6000 FEW015 SCT030 BECMG 2807/2808 28010KT 7000 FEW020 SCT030 BKN100 PROB40 2808/2814 30012KT 4000 -TSRA FEW025CB BECMG 2814/2815 10003KT 6000 FEW020 SCT030

Decode

Destination Runways

ID Width Length Bearing (true) Bearing (mag) Surface Threshold Offset Overrun Length
02 148 ft / 45 m 10,017 ft / 3,053 m 21.50° 20.99° Asphalt 0 ft / 0 m 0 ft / 0 m
20 148 ft / 45 m 10,017 ft / 3,053 m 201.51° 201.00° Asphalt 400 ft / 122 m 0 ft / 0 m

Popular Alternatives